Cottage Grove, Tennessee
Current Conditions -  °F | °C
As of 10:35 PM on Saturday 25 Oct 2014 (Local Time) from KPHT Reporting Station
Overcast Overcast  
Wind Chill: 57°   Ceiling: Unl
Heat Index: 57°   Visibility: 0mi
Dew Point: 57°   Wind: 0mph
Humidity: 100%   Direction: NA
Pressure: 30.03"   Gusts: NA
Location:  36.38°N, 88.48°W
Report Text: KPHT 260335Z AUTO 00000KT M1/4SM VV000 14/14 A3003 RMK
Loading
Personal Weather Stations






























Interactive Weather Map New forecast layout! Learn more

10-Day Weather Forecast

Advertisements
Track Severe Weather on mobile